Blue Oak Ranch Reserve, California Weather observations

Data are for 10 minute period ending at time listed.
 Day   Time   Solar   Ave.   Ave.  Ave.  Vector  Max.   Baro.   Total    
  of    of     Rad.   Air    Rel.  Wind   Wind   Wind  Press.  Precip.   
Year   Day            Temp.  Hum.  Speed  Dir.   Gust                    
2022   (PST)  Kw/m2    F      %     mph   deg.    mph    mb.     in.     
-------------------------------------------------------------------------
 179   12:00   0.95   81.5    27    6.2   246    12.3   952.9    0.00 
 179   12:10   0.96   81.2    26    6.7   241    12.6   952.8    0.00 
 179   12:20   0.96   81.7    25    6.3   252    13.1   952.7    0.00 
 179   12:30   0.96   82.3    26    7.8   242    13.6   952.6    0.00 
 179   12:40   0.95   82.4    25    7.2   247    13.4   952.6    0.00 
 179   12:50   0.94   82.9    25    7.0   243    13.1   952.6    0.00 
 179   13:00   0.94   82.4    25    6.9   246    15.2   952.6    0.00 
 179   13:10   0.94   83.0    25    8.7   253    14.7   952.6    0.00 
 179   13:20   0.93   82.9    25    7.4   239    12.4   952.6    0.00 
 179   13:30   0.92   83.2    25    7.7   250    12.4   952.6    0.00 
 179   13:40   0.91   83.5    24    7.3   234    14.1   952.6    0.00 
 179   13:50   0.89   83.4    25    7.9   236    14.3   952.5    0.00 
 179   14:00   0.88   84.8    23    6.3   251    11.5   952.4    0.00 
 179   14:10   0.87   86.3    20    5.8   266    11.5   952.4    0.00 
 179   14:20   0.85   87.0    17    7.6   274    12.6   952.4    0.00 
 179   14:30   0.83   86.8    16    7.1   278    12.2   952.3    0.00 
 179   14:40   0.82   86.8    14    7.2   278    12.3   952.2    0.00 
 179   14:50   0.80   86.4    12    7.2   280    12.2   952.2    0.00 
 179   15:00   0.78   86.4    13    6.5   268    10.8   952.1    0.00 
 179   15:10   0.75   86.4    13    6.2   266    10.9   952.1    0.00 
 179   15:20   0.73   86.9    13    6.4   277    10.0   952.0    0.00 
 179   15:30   0.70   85.7    11    7.1   281    11.8   952.0    0.00 
 179   15:40   0.68   86.4    11    6.9   274    11.9   951.9    0.00 
 179   15:50   0.65   86.2    12    5.9   257    10.8   951.8    0.00 
 179   16:00   0.62   86.7    11    6.5   267    10.7   951.7    0.00 
 179   16:10   0.59   85.9    12    6.5   257    12.4   951.7    0.00 
 179   16:20   0.56   85.4    12    7.2   271    12.5   951.6    0.00 
 179   16:30   0.54   85.3    11    7.2   270    11.0   951.5    0.00 
 179   16:40   0.50   84.7    11    7.0   283    10.8   951.4    0.00 
 179   16:50   0.47   84.4    14    5.3   254    10.5   951.4    0.00 
 179   17:00   0.44   82.2    17    5.4   242     9.8   951.4    0.00 
 179   17:10   0.41   81.9    20    5.1   240     9.9   951.3    0.00 
 179   17:20   0.37   81.1    23    5.4   247     9.0   951.1    0.00 
 179   17:30   0.34   80.9    23    5.1   256     9.1   951.0    0.00 
 179   17:40   0.31   79.6    24    4.8   242     7.9   951.0    0.00 
 179   17:50   0.28   78.2    25    3.8   231     8.1   951.0    0.00 
 179   18:00   0.25   77.5    26    3.9   240     8.6   951.0    0.00 
 179   18:10   0.22   77.1    26    2.9   237     6.2   951.0    0.00 
 179   18:20   0.19   76.9    26    3.0   270     6.7   951.1    0.00 
 179   18:30   0.16   76.1    27    2.8   258     4.7   951.1    0.00 
 179   18:40   0.13   74.9    28    4.1   275     6.4   951.0    0.00 
 179   18:50   0.10   74.4    27    3.4   265     6.9   951.0    0.00 
 179   19:00   0.07   73.8    22    4.6   282     7.7   951.1    0.00 
 179   19:10   0.04   72.9    17    6.0   280     8.0   951.1    0.00 
 179   19:20   0.02   70.8    18    6.4   283     8.5   951.0    0.00 
 179   19:30   0.01   69.1    20    6.8   291     9.4   951.0    0.00 
 179   19:40   0.00   69.2    20    8.4   308    11.2   951.0    0.00 
 179   19:50   0.00   69.0    20    6.9   313    10.6   951.1    0.00 
 179   20:00   0.00   68.5    20    5.0   316     8.9   951.1    0.00 
 179   20:10   0.00   67.9    19    5.1   315     8.8   951.1    0.00 
 179   20:20   0.00   68.5    18    4.9   312     7.8   951.1    0.00 
 179   20:30   0.00   68.4    16    4.5   322     8.6   951.1    0.00 
 179   20:40   0.00   66.5    20    3.3   318     7.2   951.3    0.00 
 179   20:50   0.00   65.9    19    2.7   310     6.2   951.3    0.00 
 179   21:00   0.00   63.6    23    1.1   300     3.5   951.3    0.00 
 179   21:10   0.00   62.3    23    1.6   311     5.2   951.3    0.00 
 179   21:20   0.00   61.2    24    0.2    28     2.5   951.4    0.00 
 179   21:30   0.00   60.4    23    1.1   356     5.8   951.3    0.00 
 179   21:40   0.00   60.2    22    0.8   337     3.4   951.3    0.00 
 179   21:50   0.00   60.1    22    1.2   313     5.2   951.2    0.00 
 179   22:00   0.00   59.5    23    0.2   150     2.7   951.2    0.00 
 179   22:10   0.00   58.9    23    0.6   284     2.3   951.1    0.00 
 179   22:20   0.00   59.1    22    0.5   313     2.0   951.2    0.00 
 179   22:30   0.00   59.4    21    1.5   311     3.3   951.2    0.00 
 179   22:40   0.00   59.4    19    1.8   315     4.1   951.1    0.00 
 179   22:50   0.00   60.3    16    0.8    12     1.8   951.1    0.00 
 179   23:00   0.00   59.7    20    1.2   291     3.7   951.0    0.00 
 179   23:10   0.00   58.9    19    1.7   282     3.6   950.9    0.00 
 179   23:20   0.00   59.2    18    1.2   304     3.5   950.9    0.00 
 179   23:30   0.00   59.3    15    0.5    41     2.4   950.9    0.00 
 179   23:40   0.00   59.3    16    1.2   305     3.7   950.9    0.00 
 179   23:50   0.00   58.6    16    0.5   281     3.3   950.8    0.00 
 180    0:00   0.00   59.1    16    0.0   284     0.4   950.8    0.00 
 180    0:10   0.00   58.6    16    0.3    58     2.0   950.8    0.00 
 180    0:20   0.00   57.9    16    0.4    64     1.7   950.8    0.00 
 180    0:30   0.00   57.3    16    0.9    53     2.3   950.8    0.00 
 180    0:40   0.00   56.7    16    1.1    48     2.3   950.8    0.00 
 180    0:50   0.00   56.9    17    1.3   289     2.0   950.7    0.00 
 180    1:00   0.00   56.5    17    0.8   290     2.1   950.6    0.00 
 180    1:10   0.00   56.8    16    0.0     0     0.0   950.6    0.00 
 180    1:20   0.00   56.8    16    0.1   284     1.5   950.6    0.00 
 180    1:30   0.00   56.7    16    0.6    58     1.6   950.5    0.00 
 180    1:40   0.00   56.1    17    0.1   310     0.7   950.5    0.00 
 180    1:50   0.00   56.5    18    0.9   279     2.5   950.4    0.00 
 180    2:00   0.00   55.7    18    0.5    39     1.6   950.4    0.00 
 180    2:10   0.00   55.6    21    0.8   282     1.7   950.4    0.00 
 180    2:20   0.00   55.3    20    0.2    64     1.5   950.3    0.00 
 180    2:30   0.00   55.3    19    0.0    43     0.4   950.3    0.00 
 180    2:40   0.00   55.6    20    0.1   212     0.7   950.3    0.00 
 180    2:50   0.00   55.5    22    0.1   266     1.4   950.3    0.00 
 180    3:00   0.00   54.8    23    1.0   282     2.1   950.3    0.00 
 180    3:10   0.00   54.6    25    0.6    30     1.6   950.3    0.00 
 180    3:20   0.00   54.8    26    0.1   242     1.0   950.3    0.00 
 180    3:30   0.00   54.9    28    0.0    79     0.5   950.3    0.00 
 180    3:40   0.00   54.7    28    0.2   268     1.2   950.3    0.00 
 180    3:50   0.00   54.6    30    0.0   259     0.5   950.2    0.00 
 180    4:00   0.00   54.4    30    0.0   270     0.7   950.2    0.00 
 180    4:10   0.00   54.6    30    0.1   285     1.1   950.2    0.00 
 180    4:20   0.00   54.6    30    0.4    27     1.7   950.2    0.00 
 180    4:30   0.00   54.3    30    0.9    54     2.2   950.2    0.00 
 180    4:40   0.00   53.9    33    2.3   288     3.3   950.3    0.00 
 180    4:50   0.00   53.9    33    1.4   293     2.9   950.3    0.00 
 180    5:00   0.01   54.0    31    1.1    70     2.1   950.5    0.00 
 180    5:10   0.01   54.3    29    0.0     0     0.0   950.5    0.00 
 180    5:20   0.01   54.8    30    0.0     0     0.0   950.6    0.00 
 180    5:30   0.01   54.8    31    0.0     0     0.0   950.7    0.00 
 180    5:40   0.02   54.8    32    0.5   330     1.8   950.7    0.00 
 180    5:50   0.02   55.2    32    1.1   281     1.8   950.8    0.00 
 180    6:00   0.14   56.5    31    0.1    42     1.0   950.8    0.00 
 180    6:10   0.18   59.9    28    1.1    63     1.9   950.9    0.00 
 180    6:20   0.21   64.1    25    0.7    93     2.0   950.9    0.00 
 180    6:30   0.24   65.7    25    0.5   269     1.8   950.9    0.00 
 180    6:40   0.27   66.4    26    0.8   278     1.5   951.0    0.00 
 180    6:50   0.30   69.5    24    0.1    79     1.0   951.1    0.00 
 180    7:00   0.34   72.9    22    0.0   295     0.8   951.1    0.00 
 180    7:10   0.37   73.5    23    0.2   272     1.5   951.1    0.00 
 180    7:20   0.40   73.6    25    1.8   255     3.9   951.1    0.00 
 180    7:30   0.43   71.6    29    4.1   230     6.1   951.1    0.00 
 180    7:40   0.47   70.1    30    3.4   225     5.3   951.1    0.00 
 180    7:50   0.50   70.1    30    3.7   233     6.2   951.2    0.00 
 180    8:00   0.53   69.8    32    3.1   232     5.0   951.3    0.00 
 180    8:10   0.56   69.7    34    3.3   234     5.2   951.4    0.00 
 180    8:20   0.59   70.4    34    2.5   235     4.3   951.4    0.00 
 180    8:30   0.62   71.7    34    3.5   234     5.1   951.4    0.00 
 180    8:40   0.65   72.2    36    3.9   234     6.6   951.3    0.00 
 180    8:50   0.68   71.7    39    4.4   231     7.2   951.3    0.00 
 180    9:00   0.70   71.9    41    4.4   233     8.8   951.3    0.00 
 180    9:10   0.73   71.2    44    4.6   227     8.0   951.3    0.00 
 180    9:20   0.76   70.3    47    4.7   232     7.7   951.3    0.00 
 180    9:30   0.78   70.4    46    5.3   225     8.6   951.4    0.00 
 180    9:40   0.80   71.1    46    6.3   229    10.0   951.4    0.00 
 180    9:50   0.82   70.8    46    6.0   228    10.2   951.5    0.00 
 180   10:00   0.84   71.9    44    4.7   226     9.5   951.6    0.00 
 180   10:10   0.86   72.4    44    4.6   230     8.3   951.6    0.00 
 180   10:20   0.87   72.7    44    5.9   218     9.7   951.6    0.00 
 180   10:30   0.89   73.0    42    5.4   228     9.1   951.7    0.00 
 180   10:40   0.90   73.4    41    6.0   231    10.8   951.6    0.00 
 180   10:50   0.92   73.8    41    5.8   242    10.4   951.7    0.00 
 180   11:00   0.93   74.1    40    5.2   247     9.6   951.8    0.00 
 180   11:10   0.94   74.2    38    5.6   236     9.2   951.7    0.00 
 180   11:20   0.95   75.3    37    5.3   246     9.4   951.8    0.00 
 180   11:30   0.96   75.7    36    5.2   233     9.6   951.8    0.00 
 180   11:40   0.96   75.3    36    5.8   225    10.2   951.8    0.00 
 180   11:50   0.96   75.6    36    5.3   226     9.3   951.8    0.00 

Return to Blue Oak Ranch Reserve graphs page.


Western Regional Climate Center,wrcc@dri.edu